createdAt,value
2019-05-19T00:01:19.460Z,13.45
2019-05-19T00:03:51.417Z,13.42
2019-05-19T00:06:23.378Z,13.33
2019-05-19T00:08:55.342Z,13.33
2019-05-19T00:11:27.338Z,13.33
2019-05-19T00:13:59.312Z,13.33
2019-05-19T00:16:31.594Z,13.23
2019-05-19T00:19:03.664Z,13.22
2019-05-19T00:21:35.629Z,13.26
2019-05-19T00:24:07.588Z,13.24
2019-05-19T00:26:40.126Z,13.19
2019-05-19T00:29:12.105Z,13.17
2019-05-19T00:31:44.134Z,13.13
2019-05-19T00:34:16.119Z,13.08
2019-05-19T00:36:48.090Z,13.05
2019-05-19T00:39:20.411Z,13.03
2019-05-19T00:41:52.396Z,13.10
2019-05-19T00:44:24.392Z,13.13
2019-05-19T00:46:56.369Z,13.14
2019-05-19T00:49:40.630Z,13.07
2019-05-19T00:52:02.124Z,13.10
2019-05-19T00:54:34.093Z,13.11
2019-05-19T00:57:06.247Z,13.13
2019-05-19T00:59:39.842Z,13.10
2019-05-19T01:02:11.818Z,13.10
2019-05-19T01:04:43.791Z,13.08
2019-05-19T01:07:15.840Z,13.05
2019-05-19T01:09:47.850Z,13.04
2019-05-19T01:12:20.175Z,13.02
2019-05-19T01:14:52.290Z,12.99
2019-05-19T01:17:24.216Z,12.99
2019-05-19T01:19:56.440Z,12.97
2019-05-19T01:22:28.814Z,12.93
2019-05-19T01:25:01.122Z,12.91
2019-05-19T01:27:33.123Z,12.88
2019-05-19T01:30:05.590Z,12.87
2019-05-19T01:32:37.624Z,12.86
2019-05-19T01:35:09.919Z,12.85
2019-05-19T01:37:41.894Z,12.86
2019-05-19T01:40:14.340Z,12.85
2019-05-19T01:42:46.374Z,12.83
2019-05-19T01:45:18.469Z,12.77
2019-05-19T01:47:50.430Z,12.64
2019-05-19T01:50:22.450Z,12.64
2019-05-19T01:52:54.422Z,12.67
2019-05-19T01:55:26.424Z,12.67
2019-05-19T01:57:58.393Z,12.61
2019-05-19T02:00:30.826Z,12.53
2019-05-19T02:03:02.802Z,12.51
2019-05-19T02:05:34.832Z,12.46
2019-05-19T02:08:06.822Z,12.39
2019-05-19T02:10:38.815Z,12.37
2019-05-19T02:13:10.826Z,12.31
2019-05-19T02:15:42.788Z,12.26
2019-05-19T02:18:14.800Z,12.22
2019-05-19T02:20:47.480Z,12.17
2019-05-19T02:23:19.459Z,12.12
2019-05-19T02:25:51.436Z,12.14
2019-05-19T02:28:23.524Z,12.15
2019-05-19T02:30:55.527Z,12.11
2019-05-19T02:33:27.505Z,12.10
2019-05-19T02:35:59.537Z,12.16
2019-05-19T02:38:31.564Z,12.14
2019-05-19T02:41:05.136Z,12.13
2019-05-19T02:43:38.453Z,12.11
2019-05-19T02:46:12.066Z,12.07
2019-05-19T02:48:45.219Z,12.10
2019-05-19T02:51:19.941Z,12.12
2019-05-19T02:53:52.466Z,12.10
2019-05-19T02:56:25.055Z,12.05
2019-05-19T02:58:58.645Z,12.04
2019-05-19T03:01:30.744Z,12.07
2019-05-19T03:04:02.685Z,12.05
2019-05-19T03:06:34.651Z,12.06
2019-05-19T03:09:07.037Z,12.08
2019-05-19T03:11:39.049Z,12.16
2019-05-19T03:14:11.244Z,12.21
2019-05-19T03:16:43.198Z,12.26
2019-05-19T03:19:15.179Z,12.38
2019-05-19T03:21:47.182Z,12.49
2019-05-19T03:24:19.146Z,12.64
2019-05-19T03:26:51.252Z,12.77
2019-05-19T03:29:29.323Z,12.89
2019-05-19T03:32:14.432Z,12.98
2019-05-19T03:34:46.419Z,13.07
2019-05-19T03:37:18.416Z,13.06
2019-05-19T03:39:50.664Z,13.13
2019-05-19T03:42:22.599Z,13.27
2019-05-19T03:44:54.604Z,13.49
2019-05-19T03:47:26.569Z,13.65
2019-05-19T03:49:58.557Z,13.77
2019-05-19T03:52:30.899Z,13.83
2019-05-19T03:55:02.868Z,14.01
2019-05-19T03:57:34.814Z,14.16
2019-05-19T04:00:08.193Z,14.32
2019-05-19T04:02:40.199Z,14.53
2019-05-19T04:05:12.268Z,14.63
2019-05-19T04:07:44.255Z,14.82
2019-05-19T04:10:16.540Z,15.05
2019-05-19T04:12:48.480Z,15.34
2019-05-19T04:15:20.712Z,15.50
2019-05-19T04:17:52.691Z,15.80
2019-05-19T04:20:24.658Z,16.05
2019-05-19T04:22:56.834Z,16.38
2019-05-19T04:25:28.839Z,16.59
2019-05-19T04:28:01.194Z,16.80
2019-05-19T04:30:33.169Z,16.96
2019-05-19T04:33:05.115Z,17.00
2019-05-19T04:35:37.091Z,17.10
2019-05-19T04:38:09.132Z,17.13
2019-05-19T04:40:41.181Z,17.43
2019-05-19T04:43:13.120Z,17.74
2019-05-19T04:45:45.113Z,18.07
2019-05-19T04:48:17.105Z,18.60
2019-05-19T04:50:49.178Z,19.11
2019-05-19T04:53:21.278Z,20.19
2019-05-19T04:55:53.293Z,21.79
2019-05-19T04:58:25.360Z,23.16
2019-05-19T05:00:57.320Z,24.51
2019-05-19T05:03:29.309Z,25.51
2019-05-19T05:06:01.284Z,26.41
2019-05-19T05:08:33.285Z,27.54
2019-05-19T05:11:05.232Z,28.91
2019-05-19T05:13:37.241Z,30.46
2019-05-19T05:16:09.296Z,31.61
2019-05-19T05:18:41.283Z,32.54
2019-05-19T05:21:13.393Z,33.65
2019-05-19T05:23:45.458Z,35.08
2019-05-19T05:26:17.626Z,35.48
2019-05-19T05:28:49.669Z,36.68
2019-05-19T05:31:21.672Z,37.54
2019-05-19T05:33:53.616Z,39.04
2019-05-19T05:36:27.780Z,40.09
2019-05-19T05:39:00.068Z,40.16
2019-05-19T05:41:32.058Z,40.97
2019-05-19T05:44:04.136Z,42.01
2019-05-19T05:46:36.142Z,43.27
2019-05-19T05:49:08.097Z,44.80
2019-05-19T05:51:40.371Z,45.27
2019-05-19T05:54:12.352Z,45.34
2019-05-19T05:56:44.386Z,44.55
2019-05-19T05:59:16.386Z,45.55
2019-05-19T06:01:48.415Z,46.83
2019-05-19T06:04:20.723Z,47.74
2019-05-19T06:06:52.749Z,48.91
2019-05-19T06:09:24.789Z,48.95
2019-05-19T06:11:56.837Z,48.59
2019-05-19T06:14:28.868Z,49.36
2019-05-19T06:17:00.817Z,50.43
2019-05-19T06:19:32.787Z,50.62
2019-05-19T06:22:04.830Z,50.51
2019-05-19T06:24:36.864Z,50.46
2019-05-19T06:27:08.987Z,51.64
2019-05-19T06:29:41.234Z,52.96
2019-05-19T06:32:28.908Z,53.95
2019-05-19T06:35:01.349Z,53.24
2019-05-19T06:37:33.381Z,52.85
2019-05-19T06:40:05.896Z,53.36
2019-05-19T06:42:37.888Z,53.03
2019-05-19T06:45:10.808Z,51.77
2019-05-19T06:47:42.826Z,51.63
2019-05-19T06:50:17.879Z,52.99
2019-05-19T06:52:50.137Z,54.54
2019-05-19T06:55:22.266Z,55.71
2019-05-19T06:57:54.362Z,57.91
2019-05-19T07:00:26.435Z,59.69
2019-05-19T07:02:58.382Z,60.48
2019-05-19T07:05:30.805Z,61.38
2019-05-19T07:08:02.866Z,61.08
2019-05-19T07:10:34.966Z,59.94
2019-05-19T07:13:07.010Z,59.36
2019-05-19T07:15:39.020Z,60.87
2019-05-19T07:18:11.022Z,61.66
2019-05-19T07:20:43.022Z,63.00
2019-05-19T07:23:27.225Z,63.09
2019-05-19T07:25:48.656Z,63.94
2019-05-19T07:28:21.034Z,65.61
2019-05-19T07:30:53.108Z,64.77
2019-05-19T07:33:25.585Z,65.50
2019-05-19T07:35:57.747Z,64.80
2019-05-19T07:38:30.904Z,66.36
2019-05-19T07:41:04.516Z,67.84
2019-05-19T07:43:35.935Z,67.95
2019-05-19T07:46:12.137Z,68.99
2019-05-19T07:48:45.184Z,70.06
2019-05-19T07:51:18.567Z,70.62
2019-05-19T07:53:50.936Z,71.95
2019-05-19T07:56:23.860Z,73.01
2019-05-19T07:58:56.784Z,73.75
2019-05-19T08:01:28.868Z,75.06
2019-05-19T08:04:01.119Z,76.68
2019-05-19T08:06:33.162Z,77.24
2019-05-19T08:09:07.087Z,77.46
2019-05-19T08:11:39.174Z,78.71
2019-05-19T08:14:11.184Z,79.46
2019-05-19T08:16:43.186Z,79.79
2019-05-19T08:19:15.228Z,80.63
2019-05-19T08:21:47.273Z,80.43
2019-05-19T08:24:19.306Z,80.19
2019-05-19T08:26:51.287Z,80.72
2019-05-19T08:29:23.213Z,80.38
2019-05-19T08:31:55.291Z,80.25
2019-05-19T08:34:27.273Z,80.02
2019-05-19T08:36:59.300Z,80.24
2019-05-19T08:39:31.312Z,80.42
2019-05-19T08:42:03.293Z,80.77
2019-05-19T08:44:35.265Z,81.04
2019-05-19T08:47:07.313Z,80.00
2019-05-19T08:49:39.285Z,80.79
2019-05-19T08:52:11.333Z,81.16
2019-05-19T08:54:43.440Z,81.84
2019-05-19T08:57:15.455Z,82.02
2019-05-19T08:59:47.570Z,81.42
2019-05-19T09:02:20.002Z,82.32
2019-05-19T09:04:51.978Z,82.19
2019-05-19T09:07:24.048Z,81.94
2019-05-19T09:09:56.026Z,81.78
2019-05-19T09:12:28.025Z,81.83
2019-05-19T09:14:59.989Z,82.11
2019-05-19T09:17:32.024Z,83.00
2019-05-19T09:20:03.974Z,83.16
2019-05-19T09:22:36.401Z,83.22
2019-05-19T09:25:08.506Z,83.65
2019-05-19T09:27:40.838Z,84.29
2019-05-19T09:30:12.902Z,80.60
2019-05-19T09:32:44.909Z,76.74
2019-05-19T09:35:17.012Z,77.78
2019-05-19T09:37:48.964Z,79.96
2019-05-19T09:40:21.274Z,80.63
2019-05-19T09:42:53.274Z,82.42
2019-05-19T09:45:25.353Z,81.58
2019-05-19T09:47:57.326Z,82.61
2019-05-19T09:50:29.282Z,80.81
2019-05-19T09:53:01.267Z,78.99
2019-05-19T09:55:33.198Z,72.72
2019-05-19T09:58:05.128Z,62.81
2019-05-19T10:00:37.115Z,63.03
2019-05-19T10:03:09.101Z,64.95
2019-05-19T10:05:41.114Z,67.07
2019-05-19T10:08:13.029Z,67.69
2019-05-19T10:11:25.735Z,70.37
2019-05-19T10:13:57.764Z,73.19
2019-05-19T10:16:30.206Z,76.55
2019-05-19T10:19:02.186Z,77.31
2019-05-19T10:21:34.154Z,77.79
2019-05-19T10:24:06.139Z,79.05
2019-05-19T10:26:38.135Z,79.63
2019-05-19T10:29:10.165Z,81.42
2019-05-19T10:43:31.880Z,62.20
2019-05-19T11:04:35.296Z,45.36
2019-05-19T11:07:07.299Z,47.30
2019-05-19T11:09:39.417Z,50.25
2019-05-19T11:12:11.665Z,53.22
2019-05-19T11:33:53.931Z,37.93
2019-05-19T11:36:25.936Z,35.77
2019-05-19T11:38:57.949Z,34.00
2019-05-19T11:41:30.252Z,32.43
2019-05-19T11:44:02.368Z,31.71
2019-05-19T11:46:34.496Z,30.80
2019-05-19T11:49:06.605Z,29.92
2019-05-19T11:51:38.610Z,29.28
2019-05-19T11:54:11.066Z,29.24
2019-05-19T11:56:43.090Z,29.31
2019-05-19T11:59:15.092Z,29.90
2019-05-19T12:01:47.390Z,30.92
2019-05-19T12:04:19.513Z,31.86
2019-05-19T12:06:51.636Z,32.68
2019-05-19T12:09:23.630Z,32.72
2019-05-19T12:11:55.686Z,32.74
2019-05-19T12:14:27.689Z,33.39
2019-05-19T12:17:00.281Z,33.84
2019-05-19T12:19:32.299Z,33.31
2019-05-19T12:22:04.249Z,32.63
2019-05-19T12:24:36.705Z,32.39
2019-05-19T12:27:08.737Z,32.34
2019-05-19T12:29:41.159Z,31.39
2019-05-19T12:32:13.166Z,30.76
2019-05-19T12:34:45.166Z,30.43
2019-05-19T12:37:17.266Z,30.38
2019-05-19T12:39:49.242Z,30.60
2019-05-19T12:42:21.684Z,30.57
2019-05-19T12:44:53.742Z,30.13
2019-05-19T12:47:25.787Z,29.48
2019-05-19T12:49:57.791Z,28.97
2019-05-19T12:52:30.031Z,28.64
2019-05-19T12:55:02.048Z,28.56
2019-05-19T12:57:34.100Z,28.46
2019-05-19T13:00:06.657Z,28.35
2019-05-19T13:02:38.624Z,28.28
2019-05-19T13:05:11.583Z,28.03
2019-05-19T13:07:43.609Z,27.71
2019-05-19T13:10:16.201Z,27.18
2019-05-19T13:12:48.335Z,26.85
2019-05-19T13:15:20.545Z,26.56
2019-05-19T13:17:52.797Z,26.27
2019-05-19T13:20:24.778Z,26.01
2019-05-19T13:22:56.819Z,25.69
2019-05-19T13:25:28.814Z,25.39
2019-05-19T13:28:01.100Z,24.02
2019-05-19T13:30:33.084Z,22.84
2019-05-19T13:33:05.055Z,21.55
2019-05-19T13:35:37.074Z,20.25
2019-05-19T13:38:09.077Z,19.17
2019-05-19T13:40:41.055Z,18.35
2019-05-19T13:43:13.074Z,17.27
2019-05-19T13:45:45.008Z,16.56
2019-05-19T13:48:17.015Z,16.08
2019-05-19T13:50:48.972Z,15.53
2019-05-19T13:53:21.245Z,15.03
2019-05-19T13:55:53.273Z,14.86
2019-05-19T13:58:25.285Z,14.83
2019-05-19T14:00:57.246Z,14.79
2019-05-19T14:03:29.340Z,14.84
2019-05-19T14:06:01.401Z,15.01
2019-05-19T14:08:33.351Z,15.20
2019-05-19T14:11:05.325Z,15.42
2019-05-19T14:13:37.275Z,15.74
2019-05-19T14:16:09.253Z,16.12
2019-05-19T14:18:41.252Z,16.50
2019-05-19T14:21:13.294Z,16.88
2019-05-19T14:23:45.320Z,17.51
2019-05-19T14:26:17.291Z,18.28
2019-05-19T14:28:49.329Z,19.09
2019-05-19T14:31:21.427Z,19.90
2019-05-19T14:33:53.621Z,20.76
2019-05-19T14:36:25.640Z,21.47
2019-05-19T14:39:06.047Z,21.91
2019-05-19T14:41:42.574Z,22.21
2019-05-19T14:44:14.704Z,22.34
2019-05-19T14:46:48.596Z,22.36
2019-05-19T14:49:20.714Z,22.31
2019-05-19T14:51:53.661Z,22.17
2019-05-19T14:54:26.405Z,22.07
2019-05-19T14:57:00.075Z,22.03
2019-05-19T14:59:32.161Z,21.98
2019-05-19T15:02:04.158Z,21.87
2019-05-19T15:04:36.177Z,21.79
2019-05-19T15:07:08.144Z,21.75
2019-05-19T15:09:40.521Z,21.74
2019-05-19T15:12:12.632Z,21.80
2019-05-19T15:14:47.411Z,21.88
2019-05-19T15:17:19.444Z,21.80
2019-05-19T15:19:51.487Z,21.72
2019-05-19T15:22:23.457Z,21.52
2019-05-19T15:24:55.458Z,21.38
2019-05-19T15:27:27.493Z,21.09
2019-05-19T15:30:11.852Z,20.97
2019-05-19T15:32:33.173Z,20.58
2019-05-19T15:35:05.561Z,20.28
2019-05-19T15:37:37.639Z,20.03
2019-05-19T15:40:10.830Z,19.89
2019-05-19T15:42:42.783Z,19.84
2019-05-19T15:45:14.999Z,19.82
2019-05-19T15:47:46.951Z,19.80
2019-05-19T15:50:20.907Z,19.81
2019-05-19T15:52:52.953Z,19.85
2019-05-19T15:55:24.929Z,19.99
2019-05-19T15:57:56.946Z,20.16
2019-05-19T16:00:28.974Z,20.33
2019-05-19T16:03:00.964Z,20.59
2019-05-19T16:05:32.945Z,20.75
2019-05-19T16:08:04.896Z,20.91
2019-05-19T16:10:36.880Z,20.78
2019-05-19T16:13:08.844Z,20.76
2019-05-19T16:15:41.236Z,20.89
2019-05-19T16:18:13.215Z,21.01
2019-05-19T16:20:45.189Z,20.83
2019-05-19T16:23:17.157Z,20.75
2019-05-19T16:25:49.165Z,20.66
2019-05-19T16:28:30.310Z,20.72
2019-05-19T16:30:55.129Z,20.75
2019-05-19T16:33:27.202Z,20.76
2019-05-19T16:35:59.204Z,20.73
2019-05-19T16:38:31.271Z,20.75
2019-05-19T16:41:03.211Z,20.66
2019-05-19T16:43:36.895Z,20.66
2019-05-19T16:46:08.968Z,20.65
2019-05-19T16:48:41.043Z,20.60
2019-05-19T16:51:13.053Z,20.59
2019-05-19T16:53:47.029Z,20.52
2019-05-19T16:56:19.140Z,20.46
2019-05-19T16:58:51.217Z,20.47
2019-05-19T17:01:23.202Z,20.47
2019-05-19T17:03:55.187Z,20.45
2019-05-19T17:06:27.171Z,20.42
2019-05-19T17:08:59.144Z,20.41
2019-05-19T17:11:31.225Z,20.36
2019-05-19T17:14:03.298Z,20.34
2019-05-19T17:16:35.359Z,20.34
2019-05-19T17:19:07.328Z,20.30
2019-05-19T17:21:40.027Z,20.38
2019-05-19T17:24:12.007Z,20.37
2019-05-19T17:26:43.989Z,20.43
2019-05-19T17:29:16.055Z,20.39
2019-05-19T17:31:48.045Z,20.37
2019-05-19T17:34:20.067Z,20.31
2019-05-19T17:36:52.066Z,20.24
2019-05-19T17:39:24.196Z,20.20
2019-05-19T17:41:56.192Z,20.13
2019-05-19T17:44:28.243Z,20.06
2019-05-19T17:47:00.609Z,19.97
2019-05-19T17:49:32.597Z,19.91
2019-05-19T17:52:05.075Z,19.88
2019-05-19T17:54:37.074Z,19.82
2019-05-19T17:57:09.179Z,19.79
2019-05-19T17:59:46.528Z,19.80
2019-05-19T18:02:18.664Z,19.80
2019-05-19T18:04:50.728Z,19.72
2019-05-19T18:07:22.776Z,19.65
2019-05-19T18:09:54.804Z,19.59
2019-05-19T18:12:26.991Z,19.56
2019-05-19T18:14:58.928Z,19.52
2019-05-19T18:17:31.383Z,19.49
2019-05-19T18:20:03.405Z,19.44
2019-05-19T18:22:35.496Z,19.37
2019-05-19T18:25:07.583Z,19.29
2019-05-19T18:27:39.971Z,19.23
2019-05-19T18:30:12.233Z,19.14
2019-05-19T18:32:44.333Z,19.08
2019-05-19T18:35:16.394Z,18.98
2019-05-19T18:37:48.422Z,18.91
2019-05-19T18:40:20.807Z,18.83
2019-05-19T18:42:52.841Z,18.76
2019-05-19T18:45:24.839Z,18.76
2019-05-19T18:47:56.942Z,18.70
2019-05-19T18:50:28.931Z,18.62
2019-05-19T18:53:00.929Z,18.57
2019-05-19T18:55:32.933Z,18.54
2019-05-19T18:58:04.912Z,18.48
2019-05-19T19:00:38.810Z,18.48
2019-05-19T19:03:11.147Z,18.44
2019-05-19T19:05:43.318Z,18.42
2019-05-19T19:08:15.364Z,18.36
2019-05-19T19:10:47.350Z,18.41
2019-05-19T19:13:20.071Z,18.36
2019-05-19T19:15:52.106Z,18.30
2019-05-19T19:18:24.237Z,18.25
2019-05-19T19:20:56.293Z,18.18
2019-05-19T19:23:28.290Z,18.08
2019-05-19T19:26:00.304Z,18.05
2019-05-19T19:28:32.323Z,18.00
2019-05-19T19:31:04.366Z,17.99
2019-05-19T19:33:36.355Z,17.97
2019-05-19T19:36:08.311Z,17.91
2019-05-19T19:38:40.651Z,17.87
2019-05-19T19:41:12.654Z,17.79
2019-05-19T19:43:44.671Z,17.77
2019-05-19T19:46:16.645Z,17.74
2019-05-19T19:48:48.709Z,17.71
2019-05-19T19:51:21.017Z,17.69
2019-05-19T19:53:53.078Z,17.63
2019-05-19T19:56:25.058Z,17.60
2019-05-19T19:58:57.139Z,17.47
2019-05-19T20:01:29.178Z,17.42
2019-05-19T20:04:01.174Z,17.38
2019-05-19T20:06:33.223Z,17.39
2019-05-19T20:09:05.901Z,17.33
2019-05-19T20:11:37.979Z,17.27
2019-05-19T20:14:09.987Z,17.25
2019-05-19T20:16:42.010Z,17.22
2019-05-19T20:19:13.997Z,17.24
2019-05-19T20:21:45.981Z,17.20
2019-05-19T20:24:17.931Z,17.16
2019-05-19T20:26:49.938Z,17.13
2019-05-19T20:29:21.919Z,17.10
2019-05-19T20:31:53.911Z,17.07
2019-05-19T20:34:25.907Z,17.03
2019-05-19T20:36:57.915Z,17.00
2019-05-19T20:39:30.329Z,16.97
2019-05-19T20:42:02.339Z,16.94
2019-05-19T20:44:34.388Z,16.91
2019-05-19T20:47:06.398Z,16.87
2019-05-19T20:49:38.451Z,16.83
2019-05-19T20:52:10.711Z,16.70
2019-05-19T20:54:42.713Z,16.78
2019-05-19T20:57:14.776Z,16.79
2019-05-19T20:59:46.783Z,16.79
2019-05-19T21:02:18.745Z,16.78
2019-05-19T21:04:50.733Z,16.74
2019-05-19T21:07:22.716Z,16.63
2019-05-19T21:09:54.747Z,16.69
2019-05-19T21:12:26.794Z,16.68
2019-05-19T21:14:58.759Z,16.67
2019-05-19T21:17:31.208Z,16.67
2019-05-19T21:20:05.725Z,16.53
2019-05-19T21:22:37.727Z,16.53
2019-05-19T21:25:10.507Z,16.52
2019-05-19T21:27:42.602Z,16.45
2019-05-19T21:30:14.601Z,16.41
2019-05-19T21:32:46.681Z,16.35
2019-05-19T21:35:18.649Z,16.34
2019-05-19T21:37:50.819Z,16.28
2019-05-19T21:40:22.791Z,16.27
2019-05-19T21:42:54.782Z,16.26
2019-05-19T21:45:26.911Z,16.26
2019-05-19T21:47:58.949Z,16.23
2019-05-19T21:50:31.494Z,16.25
2019-05-19T21:53:06.466Z,16.26
2019-05-19T21:55:37.469Z,16.17
2019-05-19T21:58:09.438Z,16.13
2019-05-19T22:00:42.801Z,16.10
2019-05-19T22:03:14.819Z,16.10
2019-05-19T22:05:53.276Z,16.11
2019-05-19T22:08:21.587Z,16.13
2019-05-19T22:10:53.939Z,16.23
2019-05-19T22:13:26.420Z,16.29
2019-05-19T22:16:11.763Z,16.33
2019-05-19T22:18:32.207Z,16.31
2019-05-19T22:21:04.181Z,16.31
2019-05-19T22:23:36.195Z,16.35
2019-05-19T22:26:08.218Z,16.34
2019-05-19T22:28:40.457Z,16.36
2019-05-19T22:31:12.474Z,16.38
2019-05-19T22:33:44.547Z,16.36
2019-05-19T22:36:16.623Z,16.24
2019-05-19T22:38:48.623Z,16.14
2019-05-19T22:41:21.002Z,16.02
2019-05-19T22:43:53.005Z,15.97
2019-05-19T22:46:25.191Z,15.88
2019-05-19T22:48:57.194Z,15.82
2019-05-19T22:51:29.184Z,15.84
2019-05-19T22:54:01.310Z,15.81
2019-05-19T22:56:33.304Z,15.84
2019-05-19T22:59:18.922Z,15.88
2019-05-19T23:01:51.023Z,15.91
2019-05-19T23:04:12.683Z,15.88
2019-05-19T23:06:44.659Z,15.86
2019-05-19T23:09:16.663Z,15.79
2019-05-19T23:11:48.654Z,15.73
2019-05-19T23:14:20.947Z,15.65
2019-05-19T23:16:52.899Z,15.58
2019-05-19T23:19:24.897Z,15.52
2019-05-19T23:21:56.836Z,15.49
2019-05-19T23:24:28.833Z,15.46
2019-05-19T23:27:01.167Z,15.39
2019-05-19T23:29:33.150Z,15.32
2019-05-19T23:32:07.373Z,15.25
2019-05-19T23:34:39.141Z,15.19
2019-05-19T23:37:11.209Z,15.11
2019-05-19T23:39:43.303Z,15.04
2019-05-19T23:42:15.305Z,15.01
2019-05-19T23:44:47.293Z,14.99
2019-05-19T23:47:19.284Z,14.93
2019-05-19T23:49:51.290Z,14.91
2019-05-19T23:52:23.289Z,14.89
2019-05-19T23:54:55.247Z,14.87
2019-05-19T23:57:27.224Z,14.88
2019-05-19T23:59:59.178Z,14.87
